EST,Max TemperatureF,Mean TemperatureF,Min TemperatureF,Max Dew PointF,MeanDew PointF,Min DewpointF,Max Humidity, Mean Humidity, Min Humidity, Max Sea Level PressureIn, Mean Sea Level PressureIn, Min Sea Level PressureIn, Max VisibilityMiles, Mean VisibilityMiles, Min VisibilityMiles, Max Wind SpeedMPH, Mean Wind SpeedMPH, Max Gust SpeedMPH,PrecipitationIn, CloudCover, Events, WindDirDegrees
2013-12-1,57,50,42,48,42,36,100,80,62,30.34,30.21,30.05,10,10,7,5,1,,0.00,6,,16
2013-12-2,66,55,44,52,47,43,100,83,45,30.05,29.94,29.86,10,9,4,6,1,,0.00,3,Rain,303
2013-12-3,64,55,46,61,55,46,100,97,83,29.98,29.92,29.88,10,7,2,9,2,,0.00,7,Rain,157
2013-12-4,71,63,55,66,62,55,100,96,78,30.10,30.03,29.95,10,6,0,8,1,,0.00,7,Fog-Rain,161
2013-12-5,73,66,59,72,65,59,100,97,88,30.16,30.10,30.07,10,7,0,9,3,,0.00,6,Fog-Rain,188
2013-12-6,82,70,57,66,63,57,100,82,54,30.16,30.11,30.07,10,9,0,16,4,22,0.00,2,Fog,216
2013-12-7,69,61,53,68,61,54,100,94,82,30.30,30.21,30.11,10,9,2,10,5,16,0.00,8,Rain,327
2013-12-8,53,50,46,54,49,46,100,100,93,30.34,30.28,30.23,10,4,1,10,7,,0.00,8,Rain,76
2013-12-9,71,58,46,66,57,46,100,98,83,30.24,30.15,30.06,10,4,0,7,3,,0.00,8,Fog-Rain,139
2013-12-10,69,53,37,68,51,32,100,81,47,30.36,30.16,30.00,10,9,0,17,6,26,0.00,5,Fog-Rain,299
2013-12-11,60,46,33,43,36,32,100,77,39,30.45,30.38,30.34,10,10,10,8,2,,0.00,1,,46
2013-12-12,57,44,32,37,31,23,100,69,27,30.46,30.39,30.35,10,10,7,8,3,,0.00,0,,344
2013-12-13,60,45,30,46,35,28,100,72,31,30.42,30.32,30.22,10,10,10,8,2,,0.00,0,,148
2013-12-14,68,58,48,66,56,45,100,92,83,30.20,30.00,29.85,10,10,3,14,5,20,0.00,7,Rain,195
2013-12-15,60,48,35,61,43,32,100,80,54,30.21,30.04,29.86,10,10,10,16,8,23,0.00,4,Rain,302
2013-12-16,62,46,30,39,34,30,100,76,30,30.29,30.25,30.21,10,9,5,8,1,,0.00,0,,301
2013-12-17,66,49,32,37,34,32,100,64,28,30.30,30.22,30.14,10,10,10,15,4,20,0.00,0,,267
2013-12-18,60,46,32,36,30,21,100,60,22,30.35,30.29,30.19,10,10,10,10,5,16,0.00,0,,316
2013-12-19,66,48,30,41,34,30,100,75,28,30.39,30.31,30.24,10,10,10,7,1,,0.00,0,,146
2013-12-20,73,55,37,55,48,37,100,88,50,30.28,30.22,30.17,10,8,0,7,1,,0.00,3,Fog,206
2013-12-21,80,65,50,66,60,50,100,83,58,30.17,30.09,30.01,10,10,5,17,4,21,0.00,5,,186
2013-12-22,80,72,64,68,67,63,94,85,65,30.10,30.06,30.03,10,10,10,16,8,24,0.00,7,Thunderstorm,193
2013-12-23,71,58,46,68,58,43,100,92,82,30.24,30.14,30.06,10,9,3,13,6,16,0.00,8,Rain,312
2013-12-24,53,43,33,41,31,27,93,69,35,30.40,30.34,30.24,10,10,10,15,8,20,0.00,1,,330
2013-12-25,44,38,32,32,29,27,87,69,57,30.49,30.41,30.36,10,10,10,12,5,17,0.00,6,,50
2013-12-26,53,44,35,43,37,30,100,73,58,30.39,30.34,30.29,10,10,7,8,4,,0.00,6,,22
2013-12-27,57,46,35,39,36,34,100,79,41,30.47,30.40,30.34,10,10,10,8,2,,0.00,0,,49
2013-12-28,51,43,35,46,37,32,100,80,50,30.41,30.27,30.05,10,8,2,12,5,,0.00,5,Rain,59
2013-12-29,59,52,46,59,51,45,100,92,77,30.07,29.96,29.82,10,8,1,16,7,23,0.00,7,Rain,282
2013-12-30,60,48,37,48,45,37,100,85,59,30.24,30.15,30.06,10,10,3,7,3,,0.00,0,,287
2013-12-31,51,46,41,48,42,36,100,83,54,30.40,30.33,30.22,10,10,10,8,4,,0.00,1,,313